sensor_id;sensor_type;location;lat;lon;timestamp;P1;durP1;ratioP1;P2;durP2;ratioP2
27305;SDS011;14792;50.886;6.468;2022-08-07T00:01:51;5.70;;;1.50;;
27305;SDS011;14792;50.886;6.468;2022-08-07T00:04:52;7.95;;;1.62;;
27305;SDS011;14792;50.886;6.468;2022-08-07T00:07:54;4.12;;;1.50;;
27305;SDS011;14792;50.886;6.468;2022-08-07T00:10:55;4.83;;;1.45;;
27305;SDS011;14792;50.886;6.468;2022-08-07T00:13:58;5.08;;;1.57;;
27305;SDS011;14792;50.886;6.468;2022-08-07T00:20:00;7.95;;;1.77;;
27305;SDS011;14792;50.886;6.468;2022-08-07T00:23:02;6.25;;;1.80;;
27305;SDS011;14792;50.886;6.468;2022-08-07T00:26:04;7.10;;;1.60;;
27305;SDS011;14792;50.886;6.468;2022-08-07T00:29:05;7.37;;;1.55;;
27305;SDS011;14792;50.886;6.468;2022-08-07T00:32:07;9.98;;;1.87;;
27305;SDS011;14792;50.886;6.468;2022-08-07T00:35:08;7.00;;;1.57;;
27305;SDS011;14792;50.886;6.468;2022-08-07T00:38:10;5.92;;;1.50;;
27305;SDS011;14792;50.886;6.468;2022-08-07T00:41:11;7.30;;;1.80;;
27305;SDS011;14792;50.886;6.468;2022-08-07T00:44:13;4.20;;;1.60;;
27305;SDS011;14792;50.886;6.468;2022-08-07T00:47:15;15.10;;;2.10;;
27305;SDS011;14792;50.886;6.468;2022-08-07T00:50:16;11.40;;;2.30;;
27305;SDS011;14792;50.886;6.468;2022-08-07T00:53:18;13.28;;;2.42;;
27305;SDS011;14792;50.886;6.468;2022-08-07T00:56:20;8.40;;;2.25;;
27305;SDS011;14792;50.886;6.468;2022-08-07T00:59:21;7.22;;;2.40;;
27305;SDS011;14792;50.886;6.468;2022-08-07T01:02:23;11.50;;;2.55;;
27305;SDS011;14792;50.886;6.468;2022-08-07T01:05:24;7.42;;;2.02;;
27305;SDS011;14792;50.886;6.468;2022-08-07T01:08:26;7.20;;;2.50;;
27305;SDS011;14792;50.886;6.468;2022-08-07T01:11:28;9.13;;;2.12;;
27305;SDS011;14792;50.886;6.468;2022-08-07T01:14:29;10.50;;;2.95;;
27305;SDS011;14792;50.886;6.468;2022-08-07T01:17:31;5.05;;;2.37;;
27305;SDS011;14792;50.886;6.468;2022-08-07T01:20:33;5.78;;;2.20;;
27305;SDS011;14792;50.886;6.468;2022-08-07T01:23:34;8.58;;;2.30;;
27305;SDS011;14792;50.886;6.468;2022-08-07T01:26:35;9.20;;;3.17;;
27305;SDS011;14792;50.886;6.468;2022-08-07T01:29:37;5.42;;;2.30;;
27305;SDS011;14792;50.886;6.468;2022-08-07T01:32:39;5.85;;;2.37;;
27305;SDS011;14792;50.886;6.468;2022-08-07T01:35:40;10.72;;;2.70;;
27305;SDS011;14792;50.886;6.468;2022-08-07T01:38:42;9.93;;;3.10;;
27305;SDS011;14792;50.886;6.468;2022-08-07T01:41:44;9.60;;;2.83;;
27305;SDS011;14792;50.886;6.468;2022-08-07T01:44:45;7.97;;;2.77;;
27305;SDS011;14792;50.886;6.468;2022-08-07T01:47:47;7.95;;;2.83;;
27305;SDS011;14792;50.886;6.468;2022-08-07T01:50:53;6.17;;;2.90;;
27305;SDS011;14792;50.886;6.468;2022-08-07T01:53:51;12.13;;;2.77;;
27305;SDS011;14792;50.886;6.468;2022-08-07T01:56:53;10.68;;;2.50;;
27305;SDS011;14792;50.886;6.468;2022-08-07T01:59:54;7.83;;;2.50;;
27305;SDS011;14792;50.886;6.468;2022-08-07T02:02:57;16.48;;;2.77;;
27305;SDS011;14792;50.886;6.468;2022-08-07T02:05:58;13.62;;;2.62;;
27305;SDS011;14792;50.886;6.468;2022-08-07T02:08:59;9.33;;;2.67;;
27305;SDS011;14792;50.886;6.468;2022-08-07T02:12:00;6.87;;;2.80;;
27305;SDS011;14792;50.886;6.468;2022-08-07T02:15:02;9.78;;;3.02;;
27305;SDS011;14792;50.886;6.468;2022-08-07T02:18:03;14.13;;;3.00;;
27305;SDS011;14792;50.886;6.468;2022-08-07T02:21:05;8.95;;;2.80;;
27305;SDS011;14792;50.886;6.468;2022-08-07T02:24:06;8.33;;;2.58;;
27305;SDS011;14792;50.886;6.468;2022-08-07T02:27:08;11.95;;;3.35;;
27305;SDS011;14792;50.886;6.468;2022-08-07T02:30:10;10.75;;;2.67;;
27305;SDS011;14792;50.886;6.468;2022-08-07T02:33:11;14.65;;;2.85;;
27305;SDS011;14792;50.886;6.468;2022-08-07T02:36:13;13.58;;;3.00;;
27305;SDS011;14792;50.886;6.468;2022-08-07T02:39:14;17.90;;;3.10;;
27305;SDS011;14792;50.886;6.468;2022-08-07T02:42:16;8.48;;;3.55;;
27305;SDS011;14792;50.886;6.468;2022-08-07T02:45:18;12.25;;;3.05;;
27305;SDS011;14792;50.886;6.468;2022-08-07T02:48:19;14.55;;;3.10;;
27305;SDS011;14792;50.886;6.468;2022-08-07T02:51:21;8.10;;;3.08;;
27305;SDS011;14792;50.886;6.468;2022-08-07T02:54:23;8.53;;;2.70;;
27305;SDS011;14792;50.886;6.468;2022-08-07T02:57:24;8.00;;;3.00;;
27305;SDS011;14792;50.886;6.468;2022-08-07T03:00:26;13.32;;;2.98;;
27305;SDS011;14792;50.886;6.468;2022-08-07T03:03:28;10.10;;;2.87;;
27305;SDS011;14792;50.886;6.468;2022-08-07T03:06:29;11.97;;;2.55;;
27305;SDS011;14792;50.886;6.468;2022-08-07T03:09:30;19.15;;;3.58;;
27305;SDS011;14792;50.886;6.468;2022-08-07T03:12:32;16.27;;;3.50;;
27305;SDS011;14792;50.886;6.468;2022-08-07T03:15:34;16.70;;;3.02;;
27305;SDS011;14792;50.886;6.468;2022-08-07T03:18:35;14.68;;;2.98;;
27305;SDS011;14792;50.886;6.468;2022-08-07T03:21:37;13.55;;;3.08;;
27305;SDS011;14792;50.886;6.468;2022-08-07T03:24:38;11.05;;;3.08;;
27305;SDS011;14792;50.886;6.468;2022-08-07T03:27:40;12.18;;;3.27;;
27305;SDS011;14792;50.886;6.468;2022-08-07T03:30:42;15.98;;;3.35;;
27305;SDS011;14792;50.886;6.468;2022-08-07T03:33:44;12.43;;;3.33;;
27305;SDS011;14792;50.886;6.468;2022-08-07T03:36:49;15.93;;;3.37;;
27305;SDS011;14792;50.886;6.468;2022-08-07T03:39:50;9.83;;;2.95;;
27305;SDS011;14792;50.886;6.468;2022-08-07T03:42:51;15.20;;;2.80;;
27305;SDS011;14792;50.886;6.468;2022-08-07T03:45:53;7.92;;;3.25;;
27305;SDS011;14792;50.886;6.468;2022-08-07T03:48:55;8.05;;;3.20;;
27305;SDS011;14792;50.886;6.468;2022-08-07T03:51:56;8.35;;;2.83;;
27305;SDS011;14792;50.886;6.468;2022-08-07T03:54:58;19.27;;;3.87;;
27305;SDS011;14792;50.886;6.468;2022-08-07T03:57:59;8.73;;;3.05;;
27305;SDS011;14792;50.886;6.468;2022-08-07T04:01:01;15.15;;;3.42;;
27305;SDS011;14792;50.886;6.468;2022-08-07T04:04:02;14.43;;;3.52;;
27305;SDS011;14792;50.886;6.468;2022-08-07T04:07:04;9.08;;;3.47;;
27305;SDS011;14792;50.886;6.468;2022-08-07T04:10:06;12.88;;;3.62;;
27305;SDS011;14792;50.886;6.468;2022-08-07T04:13:11;12.05;;;3.02;;
27305;SDS011;14792;50.886;6.468;2022-08-07T04:16:12;14.68;;;3.50;;
27305;SDS011;14792;50.886;6.468;2022-08-07T04:19:13;11.03;;;3.37;;
27305;SDS011;14792;50.886;6.468;2022-08-07T04:22:16;10.55;;;2.87;;
27305;SDS011;14792;50.886;6.468;2022-08-07T04:25:17;9.83;;;3.08;;
27305;SDS011;14792;50.886;6.468;2022-08-07T04:28:19;11.28;;;2.87;;
27305;SDS011;14792;50.886;6.468;2022-08-07T04:31:23;11.57;;;3.47;;
27305;SDS011;14792;50.886;6.468;2022-08-07T04:34:25;16.82;;;3.05;;
27305;SDS011;14792;50.886;6.468;2022-08-07T04:37:27;12.47;;;3.00;;
27305;SDS011;14792;50.886;6.468;2022-08-07T04:40:28;11.18;;;3.08;;
27305;SDS011;14792;50.886;6.468;2022-08-07T04:43:32;9.13;;;3.15;;
27305;SDS011;14792;50.886;6.468;2022-08-07T04:46:38;13.43;;;3.70;;
27305;SDS011;14792;50.886;6.468;2022-08-07T04:56:17;12.18;;;2.98;;
27305;SDS011;14792;50.886;6.468;2022-08-07T04:59:17;7.17;;;3.75;;
27305;SDS011;14792;50.886;6.468;2022-08-07T05:02:20;12.55;;;3.77;;
27305;SDS011;14792;50.886;6.468;2022-08-07T05:05:29;12.03;;;3.60;;
27305;SDS011;14792;50.886;6.468;2022-08-07T05:11:43;13.00;;;3.17;;
27305;SDS011;14792;50.886;6.468;2022-08-07T05:14:44;12.55;;;3.12;;
27305;SDS011;14792;50.886;6.468;2022-08-07T05:17:47;8.03;;;3.12;;
27305;SDS011;14792;50.886;6.468;2022-08-07T05:20:48;11.70;;;3.90;;
27305;SDS011;14792;50.886;6.468;2022-08-07T05:23:50;9.60;;;3.58;;
27305;SDS011;14792;50.886;6.468;2022-08-07T05:26:51;11.48;;;4.60;;
27305;SDS011;14792;50.886;6.468;2022-08-07T05:29:52;10.80;;;4.15;;
27305;SDS011;14792;50.886;6.468;2022-08-07T05:32:53;13.83;;;4.30;;
27305;SDS011;14792;50.886;6.468;2022-08-07T05:35:55;16.23;;;4.78;;
27305;SDS011;14792;50.886;6.468;2022-08-07T05:41:58;15.53;;;5.92;;
27305;SDS011;14792;50.886;6.468;2022-08-07T05:45:00;17.67;;;6.72;;
27305;SDS011;14792;50.886;6.468;2022-08-07T05:48:02;12.30;;;4.85;;
27305;SDS011;14792;50.886;6.468;2022-08-07T05:51:03;18.98;;;4.37;;
27305;SDS011;14792;50.886;6.468;2022-08-07T05:54:05;11.00;;;4.30;;
27305;SDS011;14792;50.886;6.468;2022-08-07T05:57:06;26.20;;;5.42;;
27305;SDS011;14792;50.886;6.468;2022-08-07T06:00:08;18.73;;;5.37;;
27305;SDS011;14792;50.886;6.468;2022-08-07T06:03:09;12.85;;;4.50;;
27305;SDS011;14792;50.886;6.468;2022-08-07T06:06:11;12.88;;;4.70;;
27305;SDS011;14792;50.886;6.468;2022-08-07T06:09:13;11.70;;;4.90;;
27305;SDS011;14792;50.886;6.468;2022-08-07T06:12:14;16.87;;;5.00;;
27305;SDS011;14792;50.886;6.468;2022-08-07T06:15:16;13.68;;;5.12;;
27305;SDS011;14792;50.886;6.468;2022-08-07T06:18:17;14.68;;;5.45;;
27305;SDS011;14792;50.886;6.468;2022-08-07T06:21:19;19.90;;;5.50;;
27305;SDS011;14792;50.886;6.468;2022-08-07T06:24:21;18.12;;;5.25;;
27305;SDS011;14792;50.886;6.468;2022-08-07T06:27:22;17.20;;;5.62;;
27305;SDS011;14792;50.886;6.468;2022-08-07T06:30:24;19.15;;;7.53;;
27305;SDS011;14792;50.886;6.468;2022-08-07T06:33:25;15.68;;;5.97;;
27305;SDS011;14792;50.886;6.468;2022-08-07T06:36:27;15.15;;;5.30;;
27305;SDS011;14792;50.886;6.468;2022-08-07T06:39:29;15.00;;;5.65;;
27305;SDS011;14792;50.886;6.468;2022-08-07T06:42:32;16.42;;;5.05;;
27305;SDS011;14792;50.886;6.468;2022-08-07T06:45:32;15.90;;;6.53;;
27305;SDS011;14792;50.886;6.468;2022-08-07T06:48:33;16.35;;;5.20;;
27305;SDS011;14792;50.886;6.468;2022-08-07T06:51:36;14.35;;;4.85;;
27305;SDS011;14792;50.886;6.468;2022-08-07T06:54:37;12.58;;;4.40;;
27305;SDS011;14792;50.886;6.468;2022-08-07T06:57:39;13.13;;;4.17;;
27305;SDS011;14792;50.886;6.468;2022-08-07T07:00:40;10.48;;;3.98;;
27305;SDS011;14792;50.886;6.468;2022-08-07T07:03:42;13.28;;;4.25;;
27305;SDS011;14792;50.886;6.468;2022-08-07T07:06:43;8.25;;;3.75;;
27305;SDS011;14792;50.886;6.468;2022-08-07T07:09:46;11.57;;;4.17;;
27305;SDS011;14792;50.886;6.468;2022-08-07T07:12:51;12.53;;;4.20;;
27305;SDS011;14792;50.886;6.468;2022-08-07T07:15:54;13.32;;;3.75;;
27305;SDS011;14792;50.886;6.468;2022-08-07T07:18:56;10.63;;;3.22;;
27305;SDS011;14792;50.886;6.468;2022-08-07T07:21:56;9.93;;;3.37;;
27305;SDS011;14792;50.886;6.468;2022-08-07T07:24:59;12.10;;;3.80;;
27305;SDS011;14792;50.886;6.468;2022-08-07T07:31:15;16.00;;;3.50;;
27305;SDS011;14792;50.886;6.468;2022-08-07T07:34:16;16.70;;;3.27;;
27305;SDS011;14792;50.886;6.468;2022-08-07T07:37:18;11.70;;;2.67;;
27305;SDS011;14792;50.886;6.468;2022-08-07T07:40:21;13.32;;;2.50;;
27305;SDS011;14792;50.886;6.468;2022-08-07T07:43:21;13.00;;;2.42;;
27305;SDS011;14792;50.886;6.468;2022-08-07T07:46:23;15.18;;;2.40;;
27305;SDS011;14792;50.886;6.468;2022-08-07T07:49:25;14.15;;;2.02;;
27305;SDS011;14792;50.886;6.468;2022-08-07T07:52:26;11.03;;;2.50;;
27305;SDS011;14792;50.886;6.468;2022-08-07T07:55:28;20.43;;;2.98;;
27305;SDS011;14792;50.886;6.468;2022-08-07T07:58:31;14.63;;;2.50;;
27305;SDS011;14792;50.886;6.468;2022-08-07T08:01:32;16.87;;;2.50;;
27305;SDS011;14792;50.886;6.468;2022-08-07T08:04:33;12.63;;;2.45;;
27305;SDS011;14792;50.886;6.468;2022-08-07T08:07:35;12.88;;;2.15;;
27305;SDS011;14792;50.886;6.468;2022-08-07T08:10:36;8.78;;;2.20;;
27305;SDS011;14792;50.886;6.468;2022-08-07T08:13:39;10.13;;;2.27;;
27305;SDS011;14792;50.886;6.468;2022-08-07T08:16:41;10.18;;;1.77;;
27305;SDS011;14792;50.886;6.468;2022-08-07T08:19:41;19.23;;;2.17;;
27305;SDS011;14792;50.886;6.468;2022-08-07T08:22:43;8.60;;;1.87;;
27305;SDS011;14792;50.886;6.468;2022-08-07T08:26:03;11.33;;;2.12;;
27305;SDS011;14792;50.886;6.468;2022-08-07T08:29:22;12.68;;;2.00;;
27305;SDS011;14792;50.886;6.468;2022-08-07T08:32:24;9.93;;;2.05;;
27305;SDS011;14792;50.886;6.468;2022-08-07T08:35:25;6.87;;;1.50;;
27305;SDS011;14792;50.886;6.468;2022-08-07T08:38:30;8.60;;;1.50;;
27305;SDS011;14792;50.886;6.468;2022-08-07T08:41:42;7.55;;;1.20;;
27305;SDS011;14792;50.886;6.468;2022-08-07T08:44:51;7.85;;;2.15;;
27305;SDS011;14792;50.886;6.468;2022-08-07T08:48:00;6.72;;;1.55;;
27305;SDS011;14792;50.886;6.468;2022-08-07T08:51:16;12.70;;;1.60;;
27305;SDS011;14792;50.886;6.468;2022-08-07T08:54:08;8.20;;;2.17;;
27305;SDS011;14792;50.886;6.468;2022-08-07T08:57:11;10.38;;;1.80;;
27305;SDS011;14792;50.886;6.468;2022-08-07T09:03:18;6.12;;;1.12;;
27305;SDS011;14792;50.886;6.468;2022-08-07T09:16:07;7.55;;;1.20;;
27305;SDS011;14792;50.886;6.468;2022-08-07T09:19:19;7.95;;;1.40;;
27305;SDS011;14792;50.886;6.468;2022-08-07T09:22:25;4.67;;;1.25;;
27305;SDS011;14792;50.886;6.468;2022-08-07T09:28:51;4.47;;;1.00;;
27305;SDS011;14792;50.886;6.468;2022-08-07T09:48:32;5.83;;;1.00;;
27305;SDS011;14792;50.886;6.468;2022-08-07T10:01:05;6.83;;;0.82;;
27305;SDS011;14792;50.886;6.468;2022-08-07T10:03:50;3.20;;;0.60;;
27305;SDS011;14792;50.886;6.468;2022-08-07T10:10:13;1.02;;;0.37;;
27305;SDS011;14792;50.886;6.468;2022-08-07T10:20:15;2.67;;;0.60;;
27305;SDS011;14792;50.886;6.468;2022-08-07T10:23:34;2.27;;;0.80;;
27305;SDS011;14792;50.886;6.468;2022-08-07T10:36:37;3.95;;;0.70;;
27305;SDS011;14792;50.886;6.468;2022-08-07T10:46:22;6.45;;;0.90;;
27305;SDS011;14792;50.886;6.468;2022-08-07T10:49:40;3.02;;;0.55;;
27305;SDS011;14792;50.886;6.468;2022-08-07T10:53:08;2.90;;;0.68;;
27305;SDS011;14792;50.886;6.468;2022-08-07T10:56:26;3.58;;;0.70;;
27305;SDS011;14792;50.886;6.468;2022-08-07T10:59:31;2.00;;;0.57;;
27305;SDS011;14792;50.886;6.468;2022-08-07T11:09:06;0.40;;;0.30;;
27305;SDS011;14792;50.886;6.468;2022-08-07T11:12:17;2.02;;;0.70;;
27305;SDS011;14792;50.886;6.468;2022-08-07T11:15:21;3.05;;;0.60;;
27305;SDS011;14792;50.886;6.468;2022-08-07T11:18:34;1.35;;;0.40;;
27305;SDS011;14792;50.886;6.468;2022-08-07T11:28:00;1.67;;;0.60;;
27305;SDS011;14792;50.886;6.468;2022-08-07T11:34:33;4.08;;;0.70;;
27305;SDS011;14792;50.886;6.468;2022-08-07T11:40:50;4.47;;;0.50;;
27305;SDS011;14792;50.886;6.468;2022-08-07T11:47:03;4.53;;;1.00;;
27305;SDS011;14792;50.886;6.468;2022-08-07T11:53:38;1.65;;;0.65;;
27305;SDS011;14792;50.886;6.468;2022-08-07T11:56:50;1.77;;;0.60;;
27305;SDS011;14792;50.886;6.468;2022-08-07T12:10:04;3.98;;;0.85;;
27305;SDS011;14792;50.886;6.468;2022-08-07T12:13:11;2.05;;;0.95;;
27305;SDS011;14792;50.886;6.468;2022-08-07T12:16:21;1.98;;;0.68;;
27305;SDS011;14792;50.886;6.468;2022-08-07T12:26:13;3.98;;;0.70;;
27305;SDS011;14792;50.886;6.468;2022-08-07T12:29:27;2.47;;;0.80;;
27305;SDS011;14792;50.886;6.468;2022-08-07T12:35:48;3.65;;;0.70;;
27305;SDS011;14792;50.886;6.468;2022-08-07T12:38:49;1.10;;;0.47;;
27305;SDS011;14792;50.886;6.468;2022-08-07T12:41:51;3.08;;;0.90;;
27305;SDS011;14792;50.886;6.468;2022-08-07T12:44:52;2.22;;;0.62;;
27305;SDS011;14792;50.886;6.468;2022-08-07T12:48:06;0.82;;;0.80;;
27305;SDS011;14792;50.886;6.468;2022-08-07T12:51:11;3.27;;;0.70;;
27305;SDS011;14792;50.886;6.468;2022-08-07T12:57:20;3.20;;;0.78;;
27305;SDS011;14792;50.886;6.468;2022-08-07T13:00:22;3.10;;;0.75;;
27305;SDS011;14792;50.886;6.468;2022-08-07T13:03:30;1.42;;;0.62;;
27305;SDS011;14792;50.886;6.468;2022-08-07T13:12:50;1.37;;;0.40;;
27305;SDS011;14792;50.886;6.468;2022-08-07T13:15:59;1.12;;;0.47;;
27305;SDS011;14792;50.886;6.468;2022-08-07T13:22:20;1.85;;;0.68;;
27305;SDS011;14792;50.886;6.468;2022-08-07T13:25:25;2.72;;;0.70;;
27305;SDS011;14792;50.886;6.468;2022-08-07T13:28:38;2.58;;;0.70;;
27305;SDS011;14792;50.886;6.468;2022-08-07T13:31:42;0.47;;;0.40;;
27305;SDS011;14792;50.886;6.468;2022-08-07T13:34:47;2.90;;;0.70;;
27305;SDS011;14792;50.886;6.468;2022-08-07T13:44:35;1.70;;;0.65;;
27305;SDS011;14792;50.886;6.468;2022-08-07T13:47:37;3.12;;;0.50;;
27305;SDS011;14792;50.886;6.468;2022-08-07T13:50:39;2.90;;;0.70;;
27305;SDS011;14792;50.886;6.468;2022-08-07T13:53:40;1.62;;;0.60;;
27305;SDS011;14792;50.886;6.468;2022-08-07T13:56:42;1.87;;;0.50;;
27305;SDS011;14792;50.886;6.468;2022-08-07T13:59:44;2.20;;;0.55;;
27305;SDS011;14792;50.886;6.468;2022-08-07T14:02:47;3.50;;;0.50;;
27305;SDS011;14792;50.886;6.468;2022-08-07T14:05:52;1.27;;;0.62;;
27305;SDS011;14792;50.886;6.468;2022-08-07T14:08:53;0.50;;;0.47;;
27305;SDS011;14792;50.886;6.468;2022-08-07T14:11:58;1.50;;;0.50;;
27305;SDS011;14792;50.886;6.468;2022-08-07T14:15:00;4.42;;;1.05;;
27305;SDS011;14792;50.886;6.468;2022-08-07T14:18:01;8.10;;;1.47;;
27305;SDS011;14792;50.886;6.468;2022-08-07T14:21:18;3.47;;;1.47;;
27305;SDS011;14792;50.886;6.468;2022-08-07T14:27:48;0.75;;;0.57;;
27305;SDS011;14792;50.886;6.468;2022-08-07T14:30:48;2.80;;;0.88;;
27305;SDS011;14792;50.886;6.468;2022-08-07T14:33:53;1.98;;;1.02;;
27305;SDS011;14792;50.886;6.468;2022-08-07T14:36:51;2.72;;;0.95;;
27305;SDS011;14792;50.886;6.468;2022-08-07T14:39:53;5.85;;;1.87;;
27305;SDS011;14792;50.886;6.468;2022-08-07T14:43:11;2.22;;;1.50;;
27305;SDS011;14792;50.886;6.468;2022-08-07T14:46:11;3.12;;;1.10;;
27305;SDS011;14792;50.886;6.468;2022-08-07T14:49:13;3.15;;;1.57;;
27305;SDS011;14792;50.886;6.468;2022-08-07T14:52:14;1.55;;;0.93;;
27305;SDS011;14792;50.886;6.468;2022-08-07T14:55:15;4.05;;;1.45;;
27305;SDS011;14792;50.886;6.468;2022-08-07T14:58:17;4.40;;;1.00;;
27305;SDS011;14792;50.886;6.468;2022-08-07T15:01:23;4.00;;;1.37;;
27305;SDS011;14792;50.886;6.468;2022-08-07T15:04:21;4.70;;;1.40;;
27305;SDS011;14792;50.886;6.468;2022-08-07T15:07:22;4.50;;;1.00;;
27305;SDS011;14792;50.886;6.468;2022-08-07T15:10:24;1.67;;;0.90;;
27305;SDS011;14792;50.886;6.468;2022-08-07T15:13:25;2.72;;;0.93;;
27305;SDS011;14792;50.886;6.468;2022-08-07T15:16:32;3.08;;;0.95;;
27305;SDS011;14792;50.886;6.468;2022-08-07T15:19:30;4.80;;;1.00;;
27305;SDS011;14792;50.886;6.468;2022-08-07T15:22:31;4.70;;;1.32;;
27305;SDS011;14792;50.886;6.468;2022-08-07T15:25:32;2.37;;;1.10;;
27305;SDS011;14792;50.886;6.468;2022-08-07T15:28:33;1.85;;;0.82;;
27305;SDS011;14792;50.886;6.468;2022-08-07T15:31:35;5.05;;;1.17;;
27305;SDS011;14792;50.886;6.468;2022-08-07T15:34:37;3.87;;;0.85;;
27305;SDS011;14792;50.886;6.468;2022-08-07T15:37:38;1.40;;;0.60;;
27305;SDS011;14792;50.886;6.468;2022-08-07T15:40:40;2.67;;;0.95;;
27305;SDS011;14792;50.886;6.468;2022-08-07T15:43:42;2.25;;;0.90;;
27305;SDS011;14792;50.886;6.468;2022-08-07T15:46:43;4.37;;;0.98;;
27305;SDS011;14792;50.886;6.468;2022-08-07T15:49:45;1.57;;;0.78;;
27305;SDS011;14792;50.886;6.468;2022-08-07T15:52:46;6.00;;;0.90;;
27305;SDS011;14792;50.886;6.468;2022-08-07T15:55:52;5.70;;;0.90;;
27305;SDS011;14792;50.886;6.468;2022-08-07T15:58:52;6.22;;;0.90;;
27305;SDS011;14792;50.886;6.468;2022-08-07T16:01:53;3.30;;;1.02;;
27305;SDS011;14792;50.886;6.468;2022-08-07T16:04:57;3.62;;;1.10;;
27305;SDS011;14792;50.886;6.468;2022-08-07T16:08:01;4.87;;;1.10;;
27305;SDS011;14792;50.886;6.468;2022-08-07T16:11:05;4.47;;;1.00;;
27305;SDS011;14792;50.886;6.468;2022-08-07T16:14:13;4.00;;;1.00;;
27305;SDS011;14792;50.886;6.468;2022-08-07T16:30:33;2.85;;;1.00;;
27305;SDS011;14792;50.886;6.468;2022-08-07T16:33:35;5.58;;;1.12;;
27305;SDS011;14792;50.886;6.468;2022-08-07T16:50:08;6.60;;;1.15;;
27305;SDS011;14792;50.886;6.468;2022-08-07T16:53:28;4.62;;;0.98;;
27305;SDS011;14792;50.886;6.468;2022-08-07T16:56:33;1.35;;;0.88;;
27305;SDS011;14792;50.886;6.468;2022-08-07T17:03:18;3.42;;;1.25;;
27305;SDS011;14792;50.886;6.468;2022-08-07T17:06:36;1.10;;;0.90;;
27305;SDS011;14792;50.886;6.468;2022-08-07T17:16:22;4.03;;;1.10;;
27305;SDS011;14792;50.886;6.468;2022-08-07T17:19:34;2.10;;;0.93;;
27305;SDS011;14792;50.886;6.468;2022-08-07T17:22:38;2.15;;;0.88;;
27305;SDS011;14792;50.886;6.468;2022-08-07T17:32:16;1.77;;;0.70;;
27305;SDS011;14792;50.886;6.468;2022-08-07T17:35:40;3.60;;;0.95;;
27305;SDS011;14792;50.886;6.468;2022-08-07T17:41:52;2.40;;;0.82;;
27305;SDS011;14792;50.886;6.468;2022-08-07T17:44:59;4.28;;;1.05;;
27305;SDS011;14792;50.886;6.468;2022-08-07T17:51:19;2.58;;;1.02;;
27305;SDS011;14792;50.886;6.468;2022-08-07T18:00:52;2.42;;;0.75;;
27305;SDS011;14792;50.886;6.468;2022-08-07T18:07:39;1.75;;;0.85;;
27305;SDS011;14792;50.886;6.468;2022-08-07T18:10:36;5.80;;;1.00;;
27305;SDS011;14792;50.886;6.468;2022-08-07T18:16:46;2.30;;;0.80;;
27305;SDS011;14792;50.886;6.468;2022-08-07T18:19:58;3.70;;;1.20;;
27305;SDS011;14792;50.886;6.468;2022-08-07T18:23:09;2.12;;;1.12;;
27305;SDS011;14792;50.886;6.468;2022-08-07T18:26:11;1.82;;;0.90;;
27305;SDS011;14792;50.886;6.468;2022-08-07T18:29:16;3.65;;;0.93;;
27305;SDS011;14792;50.886;6.468;2022-08-07T18:32:22;3.35;;;1.05;;
27305;SDS011;14792;50.886;6.468;2022-08-07T18:42:16;3.20;;;1.10;;
27305;SDS011;14792;50.886;6.468;2022-08-07T18:45:22;2.10;;;1.00;;
27305;SDS011;14792;50.886;6.468;2022-08-07T18:55:10;2.27;;;1.02;;
27305;SDS011;14792;50.886;6.468;2022-08-07T18:58:36;2.42;;;0.98;;
27305;SDS011;14792;50.886;6.468;2022-08-07T19:01:39;6.22;;;1.07;;
27305;SDS011;14792;50.886;6.468;2022-08-07T19:14:22;5.42;;;1.00;;
27305;SDS011;14792;50.886;6.468;2022-08-07T19:17:29;4.55;;;1.17;;
27305;SDS011;14792;50.886;6.468;2022-08-07T19:21:01;3.92;;;1.25;;
27305;SDS011;14792;50.886;6.468;2022-08-07T19:23:47;2.95;;;1.20;;
27305;SDS011;14792;50.886;6.468;2022-08-07T19:26:48;2.15;;;1.20;;
27305;SDS011;14792;50.886;6.468;2022-08-07T19:29:50;2.33;;;1.20;;
27305;SDS011;14792;50.886;6.468;2022-08-07T19:32:50;2.52;;;1.30;;
27305;SDS011;14792;50.886;6.468;2022-08-07T19:35:53;4.05;;;1.17;;
27305;SDS011;14792;50.886;6.468;2022-08-07T19:38:54;1.10;;;0.98;;
27305;SDS011;14792;50.886;6.468;2022-08-07T19:41:55;2.60;;;1.27;;
27305;SDS011;14792;50.886;6.468;2022-08-07T19:44:58;3.25;;;1.30;;
27305;SDS011;14792;50.886;6.468;2022-08-07T19:47:58;3.12;;;1.37;;
27305;SDS011;14792;50.886;6.468;2022-08-07T19:51:00;3.20;;;1.32;;
27305;SDS011;14792;50.886;6.468;2022-08-07T19:54:01;2.70;;;1.27;;
27305;SDS011;14792;50.886;6.468;2022-08-07T19:57:03;1.47;;;1.30;;
27305;SDS011;14792;50.886;6.468;2022-08-07T20:00:05;2.27;;;1.20;;
27305;SDS011;14792;50.886;6.468;2022-08-07T20:03:07;1.98;;;1.52;;
27305;SDS011;14792;50.886;6.468;2022-08-07T20:06:08;2.17;;;1.15;;
27305;SDS011;14792;50.886;6.468;2022-08-07T20:09:10;1.92;;;1.25;;
27305;SDS011;14792;50.886;6.468;2022-08-07T20:12:11;3.80;;;1.15;;
27305;SDS011;14792;50.886;6.468;2022-08-07T20:15:14;3.83;;;1.42;;
27305;SDS011;14792;50.886;6.468;2022-08-07T20:18:14;2.12;;;1.12;;
27305;SDS011;14792;50.886;6.468;2022-08-07T20:21:16;2.25;;;1.40;;
27305;SDS011;14792;50.886;6.468;2022-08-07T20:24:25;2.60;;;1.37;;
27305;SDS011;14792;50.886;6.468;2022-08-07T20:27:25;1.47;;;1.20;;
27305;SDS011;14792;50.886;6.468;2022-08-07T20:30:30;3.65;;;1.32;;
27305;SDS011;14792;50.886;6.468;2022-08-07T20:33:31;2.70;;;1.50;;
27305;SDS011;14792;50.886;6.468;2022-08-07T20:36:32;2.22;;;1.37;;
27305;SDS011;14792;50.886;6.468;2022-08-07T20:39:36;3.08;;;1.32;;
27305;SDS011;14792;50.886;6.468;2022-08-07T20:42:36;5.40;;;1.60;;
27305;SDS011;14792;50.886;6.468;2022-08-07T20:45:39;2.42;;;1.35;;
27305;SDS011;14792;50.886;6.468;2022-08-07T20:48:39;7.05;;;1.85;;
27305;SDS011;14792;50.886;6.468;2022-08-07T20:51:40;5.20;;;1.40;;
27305;SDS011;14792;50.886;6.468;2022-08-07T20:54:42;7.80;;;1.52;;
27305;SDS011;14792;50.886;6.468;2022-08-07T20:57:45;4.53;;;1.92;;
27305;SDS011;14792;50.886;6.468;2022-08-07T21:00:49;2.87;;;1.50;;
27305;SDS011;14792;50.886;6.468;2022-08-07T21:03:51;2.50;;;1.50;;
27305;SDS011;14792;50.886;6.468;2022-08-07T21:06:51;4.20;;;1.40;;
27305;SDS011;14792;50.886;6.468;2022-08-07T21:09:51;3.35;;;1.52;;
27305;SDS011;14792;50.886;6.468;2022-08-07T21:12:53;4.92;;;1.75;;
27305;SDS011;14792;50.886;6.468;2022-08-07T21:15:55;5.95;;;1.50;;
27305;SDS011;14792;50.886;6.468;2022-08-07T21:18:56;7.65;;;1.65;;
27305;SDS011;14792;50.886;6.468;2022-08-07T21:21:57;10.65;;;1.90;;
27305;SDS011;14792;50.886;6.468;2022-08-07T21:25:46;4.30;;;1.30;;
27305;SDS011;14792;50.886;6.468;2022-08-07T21:28:11;3.37;;;1.72;;
27305;SDS011;14792;50.886;6.468;2022-08-07T21:31:12;3.45;;;1.62;;
27305;SDS011;14792;50.886;6.468;2022-08-07T21:37:33;5.17;;;1.65;;
27305;SDS011;14792;50.886;6.468;2022-08-07T21:41:02;4.65;;;1.67;;
27305;SDS011;14792;50.886;6.468;2022-08-07T21:47:47;5.47;;;1.60;;
27305;SDS011;14792;50.886;6.468;2022-08-07T21:50:44;5.05;;;1.87;;
27305;SDS011;14792;50.886;6.468;2022-08-07T21:53:48;4.90;;;1.70;;
27305;SDS011;14792;50.886;6.468;2022-08-07T21:57:02;3.33;;;1.95;;
27305;SDS011;14792;50.886;6.468;2022-08-07T22:00:06;4.00;;;1.75;;
27305;SDS011;14792;50.886;6.468;2022-08-07T22:03:14;4.03;;;1.80;;
27305;SDS011;14792;50.886;6.468;2022-08-07T22:06:18;5.10;;;1.45;;
27305;SDS011;14792;50.886;6.468;2022-08-07T22:09:21;3.27;;;1.80;;
27305;SDS011;14792;50.886;6.468;2022-08-07T22:12:26;3.58;;;1.72;;
27305;SDS011;14792;50.886;6.468;2022-08-07T22:19:06;2.67;;;1.72;;
27305;SDS011;14792;50.886;6.468;2022-08-07T22:22:14;2.98;;;1.67;;
27305;SDS011;14792;50.886;6.468;2022-08-07T22:25:33;3.50;;;1.57;;
27305;SDS011;14792;50.886;6.468;2022-08-07T22:35:00;4.42;;;1.85;;
27305;SDS011;14792;50.886;6.468;2022-08-07T22:38:06;5.00;;;2.08;;
27305;SDS011;14792;50.886;6.468;2022-08-07T22:41:26;3.12;;;1.77;;